sensor_id;sensor_type;location;lat;lon;timestamp;P1;durP1;ratioP1;P2;durP2;ratioP2
8825;SDS011;4449;50.872;4.714;2023-05-07T00:01:38;6.33;;;5.70;;
8825;SDS011;4449;50.872;4.714;2023-05-07T00:04:06;7.27;;;6.30;;
8825;SDS011;4449;50.872;4.714;2023-05-07T00:06:34;7.37;;;6.13;;
8825;SDS011;4449;50.872;4.714;2023-05-07T00:09:03;9.73;;;6.33;;
8825;SDS011;4449;50.872;4.714;2023-05-07T00:11:31;10.83;;;6.60;;
8825;SDS011;4449;50.872;4.714;2023-05-07T00:13:59;8.77;;;6.93;;
8825;SDS011;4449;50.872;4.714;2023-05-07T00:16:26;9.53;;;6.83;;
8825;SDS011;4449;50.872;4.714;2023-05-07T00:18:57;9.33;;;6.80;;
8825;SDS011;4449;50.872;4.714;2023-05-07T00:21:25;7.53;;;6.60;;
8825;SDS011;4449;50.872;4.714;2023-05-07T00:23:53;8.17;;;7.10;;
8825;SDS011;4449;50.872;4.714;2023-05-07T00:26:22;8.73;;;6.63;;
8825;SDS011;4449;50.872;4.714;2023-05-07T00:28:50;7.87;;;6.80;;
8825;SDS011;4449;50.872;4.714;2023-05-07T00:41:07;13.90;;;7.10;;
8825;SDS011;4449;50.872;4.714;2023-05-07T00:43:36;10.83;;;6.77;;
8825;SDS011;4449;50.872;4.714;2023-05-07T00:46:04;7.27;;;6.77;;
8825;SDS011;4449;50.872;4.714;2023-05-07T00:48:32;8.07;;;6.97;;
8825;SDS011;4449;50.872;4.714;2023-05-07T00:50:59;7.93;;;7.00;;
8825;SDS011;4449;50.872;4.714;2023-05-07T00:53:27;8.67;;;6.90;;
8825;SDS011;4449;50.872;4.714;2023-05-07T00:55:55;8.50;;;7.47;;
8825;SDS011;4449;50.872;4.714;2023-05-07T00:58:23;7.67;;;6.93;;
8825;SDS011;4449;50.872;4.714;2023-05-07T01:00:53;8.27;;;6.27;;
8825;SDS011;4449;50.872;4.714;2023-05-07T01:03:20;7.20;;;5.87;;
8825;SDS011;4449;50.872;4.714;2023-05-07T01:05:48;10.27;;;7.03;;
8825;SDS011;4449;50.872;4.714;2023-05-07T01:08:17;7.27;;;6.47;;
8825;SDS011;4449;50.872;4.714;2023-05-07T01:10:45;8.67;;;6.60;;
8825;SDS011;4449;50.872;4.714;2023-05-07T01:13:13;8.40;;;6.40;;
8825;SDS011;4449;50.872;4.714;2023-05-07T01:15:42;7.47;;;6.60;;
8825;SDS011;4449;50.872;4.714;2023-05-07T01:18:12;7.27;;;6.33;;
8825;SDS011;4449;50.872;4.714;2023-05-07T01:20:40;8.30;;;7.10;;
8825;SDS011;4449;50.872;4.714;2023-05-07T01:23:09;9.73;;;7.03;;
8825;SDS011;4449;50.872;4.714;2023-05-07T01:25:38;7.07;;;6.37;;
8825;SDS011;4449;50.872;4.714;2023-05-07T01:28:06;8.57;;;6.30;;
8825;SDS011;4449;50.872;4.714;2023-05-07T01:30:34;8.23;;;6.57;;
8825;SDS011;4449;50.872;4.714;2023-05-07T01:33:02;9.47;;;7.20;;
8825;SDS011;4449;50.872;4.714;2023-05-07T01:35:33;7.67;;;6.80;;
8825;SDS011;4449;50.872;4.714;2023-05-07T01:38:01;9.80;;;7.20;;
8825;SDS011;4449;50.872;4.714;2023-05-07T01:40:32;8.97;;;7.17;;
8825;SDS011;4449;50.872;4.714;2023-05-07T01:43:01;7.60;;;6.87;;
8825;SDS011;4449;50.872;4.714;2023-05-07T01:45:29;9.37;;;7.67;;
8825;SDS011;4449;50.872;4.714;2023-05-07T01:47:57;9.50;;;7.77;;
8825;SDS011;4449;50.872;4.714;2023-05-07T01:50:28;8.60;;;7.77;;
8825;SDS011;4449;50.872;4.714;2023-05-07T01:52:57;9.43;;;7.20;;
8825;SDS011;4449;50.872;4.714;2023-05-07T01:55:25;9.13;;;7.80;;
8825;SDS011;4449;50.872;4.714;2023-05-07T01:57:54;9.33;;;7.63;;
8825;SDS011;4449;50.872;4.714;2023-05-07T02:00:22;9.87;;;8.13;;
8825;SDS011;4449;50.872;4.714;2023-05-07T02:02:50;9.17;;;8.27;;
8825;SDS011;4449;50.872;4.714;2023-05-07T02:05:21;8.97;;;8.07;;
8825;SDS011;4449;50.872;4.714;2023-05-07T02:07:49;10.97;;;8.60;;
8825;SDS011;4449;50.872;4.714;2023-05-07T02:10:16;10.37;;;8.53;;
8825;SDS011;4449;50.872;4.714;2023-05-07T02:12:44;11.07;;;8.03;;
8825;SDS011;4449;50.872;4.714;2023-05-07T02:15:13;9.87;;;8.80;;
8825;SDS011;4449;50.872;4.714;2023-05-07T02:20:23;10.53;;;8.57;;
8825;SDS011;4449;50.872;4.714;2023-05-07T02:22:51;11.17;;;8.93;;
8825;SDS011;4449;50.872;4.714;2023-05-07T02:25:19;10.60;;;9.00;;
8825;SDS011;4449;50.872;4.714;2023-05-07T02:27:47;10.63;;;9.52;;
8825;SDS011;4449;50.872;4.714;2023-05-07T02:30:16;11.88;;;10.15;;
8825;SDS011;4449;50.872;4.714;2023-05-07T02:32:44;10.77;;;9.73;;
8825;SDS011;4449;50.872;4.714;2023-05-07T02:35:11;10.88;;;9.55;;
8825;SDS011;4449;50.872;4.714;2023-05-07T02:37:42;11.98;;;9.32;;
8825;SDS011;4449;50.872;4.714;2023-05-07T02:40:10;10.52;;;9.52;;
8825;SDS011;4449;50.872;4.714;2023-05-07T02:42:38;12.23;;;9.60;;
8825;SDS011;4449;50.872;4.714;2023-05-07T02:45:07;10.30;;;9.35;;
8825;SDS011;4449;50.872;4.714;2023-05-07T02:47:36;10.65;;;9.60;;
8825;SDS011;4449;50.872;4.714;2023-05-07T02:50:04;9.67;;;8.87;;
8825;SDS011;4449;50.872;4.714;2023-05-07T02:52:32;9.20;;;8.30;;
8825;SDS011;4449;50.872;4.714;2023-05-07T02:55:00;10.17;;;9.17;;
8825;SDS011;4449;50.872;4.714;2023-05-07T02:57:28;9.53;;;8.43;;
8825;SDS011;4449;50.872;4.714;2023-05-07T02:59:57;9.27;;;8.03;;
8825;SDS011;4449;50.872;4.714;2023-05-07T03:02:25;9.70;;;8.73;;
8825;SDS011;4449;50.872;4.714;2023-05-07T03:04:54;15.37;;;8.60;;
8825;SDS011;4449;50.872;4.714;2023-05-07T03:07:22;10.10;;;8.40;;
8825;SDS011;4449;50.872;4.714;2023-05-07T03:09:50;15.83;;;9.97;;
8825;SDS011;4449;50.872;4.714;2023-05-07T03:12:18;10.43;;;9.53;;
8825;SDS011;4449;50.872;4.714;2023-05-07T03:14:46;10.07;;;9.07;;
8825;SDS011;4449;50.872;4.714;2023-05-07T03:17:14;10.93;;;9.77;;
8825;SDS011;4449;50.872;4.714;2023-05-07T03:19:42;11.33;;;9.90;;
8825;SDS011;4449;50.872;4.714;2023-05-07T03:22:11;10.47;;;9.47;;
8825;SDS011;4449;50.872;4.714;2023-05-07T03:24:39;11.50;;;9.80;;
8825;SDS011;4449;50.872;4.714;2023-05-07T03:27:09;12.07;;;10.83;;
8825;SDS011;4449;50.872;4.714;2023-05-07T03:29:36;11.23;;;10.03;;
8825;SDS011;4449;50.872;4.714;2023-05-07T03:32:04;15.03;;;9.90;;
8825;SDS011;4449;50.872;4.714;2023-05-07T03:34:32;11.50;;;10.23;;
8825;SDS011;4449;50.872;4.714;2023-05-07T03:37:00;13.87;;;10.73;;
8825;SDS011;4449;50.872;4.714;2023-05-07T03:39:31;13.90;;;10.83;;
8825;SDS011;4449;50.872;4.714;2023-05-07T03:41:59;12.27;;;11.00;;
8825;SDS011;4449;50.872;4.714;2023-05-07T03:44:27;13.63;;;11.67;;
8825;SDS011;4449;50.872;4.714;2023-05-07T03:46:55;14.93;;;12.23;;
8825;SDS011;4449;50.872;4.714;2023-05-07T03:49:23;13.87;;;11.53;;
8825;SDS011;4449;50.872;4.714;2023-05-07T03:51:50;12.73;;;11.53;;
8825;SDS011;4449;50.872;4.714;2023-05-07T03:54:18;14.03;;;12.10;;
8825;SDS011;4449;50.872;4.714;2023-05-07T03:56:47;12.90;;;11.60;;
8825;SDS011;4449;50.872;4.714;2023-05-07T03:59:15;12.10;;;10.90;;
8825;SDS011;4449;50.872;4.714;2023-05-07T04:01:43;15.20;;;12.30;;
8825;SDS011;4449;50.872;4.714;2023-05-07T04:04:11;12.83;;;10.50;;
8825;SDS011;4449;50.872;4.714;2023-05-07T04:06:38;13.57;;;10.10;;
8825;SDS011;4449;50.872;4.714;2023-05-07T04:09:06;10.53;;;9.47;;
8825;SDS011;4449;50.872;4.714;2023-05-07T04:11:35;9.77;;;8.53;;
8825;SDS011;4449;50.872;4.714;2023-05-07T04:14:04;13.63;;;8.97;;
8825;SDS011;4449;50.872;4.714;2023-05-07T04:16:32;11.40;;;8.87;;
8825;SDS011;4449;50.872;4.714;2023-05-07T04:18:59;12.37;;;9.50;;
8825;SDS011;4449;50.872;4.714;2023-05-07T04:21:27;12.80;;;11.30;;
8825;SDS011;4449;50.872;4.714;2023-05-07T04:23:55;13.15;;;11.70;;
8825;SDS011;4449;50.872;4.714;2023-05-07T04:26:23;14.15;;;11.65;;
8825;SDS011;4449;50.872;4.714;2023-05-07T04:28:51;13.90;;;11.07;;
8825;SDS011;4449;50.872;4.714;2023-05-07T04:31:20;11.83;;;10.17;;
8825;SDS011;4449;50.872;4.714;2023-05-07T04:33:48;12.07;;;10.77;;
8825;SDS011;4449;50.872;4.714;2023-05-07T04:36:16;10.73;;;9.70;;
8825;SDS011;4449;50.872;4.714;2023-05-07T04:38:44;12.33;;;10.70;;
8825;SDS011;4449;50.872;4.714;2023-05-07T04:41:12;12.43;;;11.13;;
8825;SDS011;4449;50.872;4.714;2023-05-07T04:43:40;13.40;;;11.07;;
8825;SDS011;4449;50.872;4.714;2023-05-07T04:46:08;13.03;;;11.30;;
8825;SDS011;4449;50.872;4.714;2023-05-07T04:48:37;12.73;;;11.30;;
8825;SDS011;4449;50.872;4.714;2023-05-07T04:51:04;12.33;;;11.07;;
8825;SDS011;4449;50.872;4.714;2023-05-07T04:53:32;12.67;;;11.37;;
8825;SDS011;4449;50.872;4.714;2023-05-07T04:56:00;12.23;;;10.80;;
8825;SDS011;4449;50.872;4.714;2023-05-07T04:58:27;13.10;;;11.30;;
8825;SDS011;4449;50.872;4.714;2023-05-07T05:00:56;12.97;;;11.60;;
8825;SDS011;4449;50.872;4.714;2023-05-07T05:03:24;13.57;;;12.17;;
8825;SDS011;4449;50.872;4.714;2023-05-07T05:05:53;13.77;;;11.90;;
8825;SDS011;4449;50.872;4.714;2023-05-07T05:08:22;14.63;;;12.20;;
8825;SDS011;4449;50.872;4.714;2023-05-07T05:10:50;17.07;;;12.27;;
8825;SDS011;4449;50.872;4.714;2023-05-07T05:13:17;12.43;;;11.13;;
8825;SDS011;4449;50.872;4.714;2023-05-07T05:15:45;13.80;;;12.23;;
8825;SDS011;4449;50.872;4.714;2023-05-07T05:18:13;16.83;;;13.37;;
8825;SDS011;4449;50.872;4.714;2023-05-07T05:20:41;16.00;;;12.50;;
8825;SDS011;4449;50.872;4.714;2023-05-07T05:23:10;14.70;;;13.40;;
8825;SDS011;4449;50.872;4.714;2023-05-07T05:25:38;17.53;;;13.57;;
8825;SDS011;4449;50.872;4.714;2023-05-07T05:28:05;13.63;;;12.10;;
8825;SDS011;4449;50.872;4.714;2023-05-07T05:30:33;13.60;;;12.30;;
8825;SDS011;4449;50.872;4.714;2023-05-07T05:33:01;16.93;;;12.67;;
8825;SDS011;4449;50.872;4.714;2023-05-07T05:35:29;21.63;;;12.70;;
8825;SDS011;4449;50.872;4.714;2023-05-07T05:37:57;15.03;;;12.47;;
8825;SDS011;4449;50.872;4.714;2023-05-07T05:40:26;12.30;;;11.10;;
8825;SDS011;4449;50.872;4.714;2023-05-07T05:42:54;12.63;;;11.50;;
8825;SDS011;4449;50.872;4.714;2023-05-07T05:45:21;14.03;;;12.03;;
8825;SDS011;4449;50.872;4.714;2023-05-07T05:47:49;14.97;;;13.07;;
8825;SDS011;4449;50.872;4.714;2023-05-07T05:50:17;14.90;;;12.97;;
8825;SDS011;4449;50.872;4.714;2023-05-07T05:52:45;16.40;;;12.27;;
8825;SDS011;4449;50.872;4.714;2023-05-07T05:55:13;13.47;;;11.87;;
8825;SDS011;4449;50.872;4.714;2023-05-07T05:57:42;14.80;;;11.90;;
8825;SDS011;4449;50.872;4.714;2023-05-07T06:00:10;15.93;;;12.47;;
8825;SDS011;4449;50.872;4.714;2023-05-07T06:02:38;13.77;;;12.37;;
8825;SDS011;4449;50.872;4.714;2023-05-07T06:05:05;16.90;;;11.90;;
8825;SDS011;4449;50.872;4.714;2023-05-07T06:07:33;13.87;;;11.83;;
8825;SDS011;4449;50.872;4.714;2023-05-07T06:10:01;16.97;;;11.70;;
8825;SDS011;4449;50.872;4.714;2023-05-07T06:12:29;12.43;;;10.80;;
8825;SDS011;4449;50.872;4.714;2023-05-07T06:14:58;12.30;;;10.97;;
8825;SDS011;4449;50.872;4.714;2023-05-07T06:17:26;11.73;;;10.47;;
8825;SDS011;4449;50.872;4.714;2023-05-07T06:19:54;11.10;;;9.97;;
8825;SDS011;4449;50.872;4.714;2023-05-07T06:22:21;14.83;;;10.10;;
8825;SDS011;4449;50.872;4.714;2023-05-07T06:24:49;16.37;;;10.33;;
8825;SDS011;4449;50.872;4.714;2023-05-07T06:27:17;13.77;;;10.77;;
8825;SDS011;4449;50.872;4.714;2023-05-07T06:29:45;10.73;;;9.80;;
8825;SDS011;4449;50.872;4.714;2023-05-07T06:32:14;11.38;;;10.32;;
8825;SDS011;4449;50.872;4.714;2023-05-07T06:34:42;11.48;;;10.02;;
8825;SDS011;4449;50.872;4.714;2023-05-07T06:37:10;11.60;;;10.32;;
8825;SDS011;4449;50.872;4.714;2023-05-07T06:39:38;13.57;;;8.90;;
8825;SDS011;4449;50.872;4.714;2023-05-07T06:42:05;12.90;;;8.23;;
8825;SDS011;4449;50.872;4.714;2023-05-07T06:44:33;9.53;;;7.63;;
8825;SDS011;4449;50.872;4.714;2023-05-07T06:47:01;7.90;;;7.20;;
8825;SDS011;4449;50.872;4.714;2023-05-07T06:49:30;8.20;;;5.60;;
8825;SDS011;4449;50.872;4.714;2023-05-07T06:51:58;8.50;;;6.13;;
8825;SDS011;4449;50.872;4.714;2023-05-07T06:54:26;6.73;;;5.87;;
8825;SDS011;4449;50.872;4.714;2023-05-07T06:56:53;6.13;;;5.63;;
8825;SDS011;4449;50.872;4.714;2023-05-07T06:59:21;6.43;;;5.80;;
8825;SDS011;4449;50.872;4.714;2023-05-07T07:01:49;9.40;;;5.73;;
8825;SDS011;4449;50.872;4.714;2023-05-07T07:04:20;11.47;;;5.90;;
8825;SDS011;4449;50.872;4.714;2023-05-07T07:06:51;12.77;;;6.67;;
8825;SDS011;4449;50.872;4.714;2023-05-07T07:09:19;5.73;;;5.10;;
8825;SDS011;4449;50.872;4.714;2023-05-07T07:11:46;5.93;;;4.97;;
8825;SDS011;4449;50.872;4.714;2023-05-07T07:14:14;5.73;;;4.93;;
8825;SDS011;4449;50.872;4.714;2023-05-07T07:16:42;7.83;;;5.20;;
8825;SDS011;4449;50.872;4.714;2023-05-07T07:19:12;14.53;;;5.80;;
8825;SDS011;4449;50.872;4.714;2023-05-07T07:21:40;8.37;;;4.93;;
8825;SDS011;4449;50.872;4.714;2023-05-07T07:24:09;7.27;;;4.60;;
8825;SDS011;4449;50.872;4.714;2023-05-07T07:26:37;8.73;;;5.13;;
8825;SDS011;4449;50.872;4.714;2023-05-07T07:29:08;6.93;;;5.10;;
8825;SDS011;4449;50.872;4.714;2023-05-07T07:31:35;8.33;;;5.43;;
8825;SDS011;4449;50.872;4.714;2023-05-07T07:34:03;6.07;;;4.33;;
8825;SDS011;4449;50.872;4.714;2023-05-07T07:36:31;8.37;;;5.07;;
8825;SDS011;4449;50.872;4.714;2023-05-07T07:38:59;7.30;;;4.47;;
8825;SDS011;4449;50.872;4.714;2023-05-07T07:41:28;5.57;;;4.80;;
8825;SDS011;4449;50.872;4.714;2023-05-07T07:43:55;9.17;;;4.40;;
8825;SDS011;4449;50.872;4.714;2023-05-07T07:56:18;6.53;;;3.57;;
8825;SDS011;4449;50.872;4.714;2023-05-07T07:58:46;3.63;;;2.83;;
8825;SDS011;4449;50.872;4.714;2023-05-07T08:01:16;6.13;;;3.80;;
8825;SDS011;4449;50.872;4.714;2023-05-07T08:03:44;6.67;;;3.77;;
8825;SDS011;4449;50.872;4.714;2023-05-07T08:06:11;3.47;;;3.20;;
8825;SDS011;4449;50.872;4.714;2023-05-07T08:08:42;3.20;;;3.00;;
8825;SDS011;4449;50.872;4.714;2023-05-07T08:11:10;5.83;;;3.37;;
8825;SDS011;4449;50.872;4.714;2023-05-07T08:13:39;5.60;;;3.10;;
8825;SDS011;4449;50.872;4.714;2023-05-07T08:16:07;6.53;;;5.13;;
8825;SDS011;4449;50.872;4.714;2023-05-07T08:18:35;6.20;;;3.95;;
8825;SDS011;4449;50.872;4.714;2023-05-07T08:21:03;3.80;;;3.37;;
8825;SDS011;4449;50.872;4.714;2023-05-07T08:23:31;8.60;;;3.73;;
8825;SDS011;4449;50.872;4.714;2023-05-07T08:25:59;5.00;;;4.20;;
8825;SDS011;4449;50.872;4.714;2023-05-07T08:28:27;9.00;;;5.70;;
8825;SDS011;4449;50.872;4.714;2023-05-07T08:30:56;8.23;;;4.00;;
8825;SDS011;4449;50.872;4.714;2023-05-07T08:33:25;6.63;;;4.27;;
8825;SDS011;4449;50.872;4.714;2023-05-07T08:35:53;7.10;;;4.00;;
8825;SDS011;4449;50.872;4.714;2023-05-07T08:38:21;6.23;;;3.80;;
8825;SDS011;4449;50.872;4.714;2023-05-07T08:40:51;6.53;;;5.63;;
8825;SDS011;4449;50.872;4.714;2023-05-07T08:43:21;6.90;;;3.77;;
8825;SDS011;4449;50.872;4.714;2023-05-07T08:45:51;6.47;;;3.90;;
8825;SDS011;4449;50.872;4.714;2023-05-07T08:48:22;9.40;;;3.40;;
8825;SDS011;4449;50.872;4.714;2023-05-07T08:50:52;6.43;;;3.40;;
8825;SDS011;4449;50.872;4.714;2023-05-07T08:53:20;6.20;;;3.63;;
8825;SDS011;4449;50.872;4.714;2023-05-07T08:55:48;6.63;;;3.97;;
8825;SDS011;4449;50.872;4.714;2023-05-07T08:58:16;5.40;;;3.90;;
8825;SDS011;4449;50.872;4.714;2023-05-07T09:00:44;4.20;;;3.83;;
8825;SDS011;4449;50.872;4.714;2023-05-07T09:03:12;3.97;;;3.60;;
8825;SDS011;4449;50.872;4.714;2023-05-07T09:05:41;5.53;;;3.90;;
8825;SDS011;4449;50.872;4.714;2023-05-07T09:08:09;3.83;;;3.27;;
8825;SDS011;4449;50.872;4.714;2023-05-07T09:10:37;4.23;;;3.40;;
8825;SDS011;4449;50.872;4.714;2023-05-07T09:13:05;3.93;;;3.03;;
8825;SDS011;4449;50.872;4.714;2023-05-07T09:15:32;3.90;;;2.87;;
8825;SDS011;4449;50.872;4.714;2023-05-07T09:18:00;4.83;;;3.00;;
8825;SDS011;4449;50.872;4.714;2023-05-07T09:20:29;7.07;;;2.93;;
8825;SDS011;4449;50.872;4.714;2023-05-07T09:23:02;4.10;;;3.27;;
8825;SDS011;4449;50.872;4.714;2023-05-07T09:25:31;3.73;;;3.43;;
8825;SDS011;4449;50.872;4.714;2023-05-07T09:28:00;5.33;;;3.97;;
8825;SDS011;4449;50.872;4.714;2023-05-07T09:30:28;5.60;;;3.03;;
8825;SDS011;4449;50.872;4.714;2023-05-07T09:32:57;9.07;;;3.60;;
8825;SDS011;4449;50.872;4.714;2023-05-07T09:35:25;6.50;;;3.37;;
8825;SDS011;4449;50.872;4.714;2023-05-07T09:37:53;7.60;;;3.63;;
8825;SDS011;4449;50.872;4.714;2023-05-07T09:40:23;5.50;;;3.40;;
8825;SDS011;4449;50.872;4.714;2023-05-07T10:41:42;4.82;;;4.05;;
8825;SDS011;4449;50.872;4.714;2023-05-07T10:44:10;8.63;;;4.13;;
8825;SDS011;4449;50.872;4.714;2023-05-07T20:28:10;9.27;;;8.37;;
8825;SDS011;4449;50.872;4.714;2023-05-07T20:30:38;9.60;;;8.70;;
8825;SDS011;4449;50.872;4.714;2023-05-07T20:33:06;8.77;;;7.97;;
8825;SDS011;4449;50.872;4.714;2023-05-07T22:25:13;11.43;;;10.30;;
8825;SDS011;4449;50.872;4.714;2023-05-07T22:27:41;11.70;;;10.50;;
8825;SDS011;4449;50.872;4.714;2023-05-07T22:30:09;10.97;;;9.87;;
8825;SDS011;4449;50.872;4.714;2023-05-07T22:32:37;12.23;;;10.83;;
8825;SDS011;4449;50.872;4.714;2023-05-07T22:35:05;11.17;;;10.07;;
8825;SDS011;4449;50.872;4.714;2023-05-07T22:37:33;12.93;;;10.63;;
8825;SDS011;4449;50.872;4.714;2023-05-07T22:40:01;11.30;;;10.20;;
8825;SDS011;4449;50.872;4.714;2023-05-07T22:42:31;12.40;;;11.20;;
8825;SDS011;4449;50.872;4.714;2023-05-07T22:44:59;11.47;;;10.27;;
8825;SDS011;4449;50.872;4.714;2023-05-07T22:47:27;11.97;;;10.80;;
8825;SDS011;4449;50.872;4.714;2023-05-07T22:49:55;11.50;;;9.73;;
8825;SDS011;4449;50.872;4.714;2023-05-07T22:52:23;12.53;;;11.13;;
8825;SDS011;4449;50.872;4.714;2023-05-07T22:54:50;14.20;;;10.67;;
8825;SDS011;4449;50.872;4.714;2023-05-07T22:57:18;12.17;;;10.87;;
8825;SDS011;4449;50.872;4.714;2023-05-07T22:59:47;15.23;;;11.40;;
8825;SDS011;4449;50.872;4.714;2023-05-07T23:02:20;13.87;;;10.93;;
8825;SDS011;4449;50.872;4.714;2023-05-07T23:04:47;13.27;;;10.93;;
8825;SDS011;4449;50.872;4.714;2023-05-07T23:07:18;13.93;;;12.40;;
8825;SDS011;4449;50.872;4.714;2023-05-07T23:09:45;14.88;;;12.73;;
8825;SDS011;4449;50.872;4.714;2023-05-07T23:12:13;13.95;;;12.55;;
8825;SDS011;4449;50.872;4.714;2023-05-07T23:14:41;14.25;;;12.90;;
8825;SDS011;4449;50.872;4.714;2023-05-07T23:17:10;14.27;;;12.70;;
8825;SDS011;4449;50.872;4.714;2023-05-07T23:19:38;14.75;;;13.25;;
8825;SDS011;4449;50.872;4.714;2023-05-07T23:22:06;14.00;;;12.70;;
8825;SDS011;4449;50.872;4.714;2023-05-07T23:24:34;14.25;;;12.57;;
8825;SDS011;4449;50.872;4.714;2023-05-07T23:27:03;14.10;;;12.80;;
8825;SDS011;4449;50.872;4.714;2023-05-07T23:29:31;14.18;;;12.77;;
8825;SDS011;4449;50.872;4.714;2023-05-07T23:31:59;13.85;;;12.35;;
8825;SDS011;4449;50.872;4.714;2023-05-07T23:34:28;13.48;;;12.15;;
8825;SDS011;4449;50.872;4.714;2023-05-07T23:36:56;13.18;;;11.98;;
8825;SDS011;4449;50.872;4.714;2023-05-07T23:39:24;13.80;;;12.50;;
8825;SDS011;4449;50.872;4.714;2023-05-07T23:41:52;14.38;;;12.95;;
8825;SDS011;4449;50.872;4.714;2023-05-07T23:44:20;13.95;;;12.57;;
8825;SDS011;4449;50.872;4.714;2023-05-07T23:46:47;13.98;;;12.63;;
8825;SDS011;4449;50.872;4.714;2023-05-07T23:49:15;14.57;;;13.18;;
8825;SDS011;4449;50.872;4.714;2023-05-07T23:51:44;14.70;;;13.20;;
8825;SDS011;4449;50.872;4.714;2023-05-07T23:54:12;14.30;;;12.90;;
8825;SDS011;4449;50.872;4.714;2023-05-07T23:56:40;13.38;;;12.07;;
8825;SDS011;4449;50.872;4.714;2023-05-07T23:59:08;13.70;;;12.40;;
